Ames, Oklahoma
Current Conditions -  °F | °C
As of 4:55 PM on Tuesday 25 Nov 2014 (Local Time) from KEND Reporting Station
Broken Clouds Broken Clouds  
Wind Chill:   Ceiling: 25000
Heat Index:   Visibility: 10mi
Dew Point: -2°   Wind: 9mph
Humidity: 46%   Direction: 150°SSE
Pressure: 30.06"   Gusts: NA
Location:  36.25°N, 98.19°W
Report Text: KEND 252255Z 15008KT 10SM SCT130 BKN250 09/M02 A3006 RMK AO2A SLP188
Loading
Personal Weather Stations






























Interactive Weather Map New forecast layout! Learn more

10-Day Weather Forecast

Advertisements
Track Severe Weather on mobile